createdAt,value
2018-10-07T00:00:45.729Z,86.00
2018-10-07T00:01:45.782Z,82.20
2018-10-07T00:02:45.782Z,78.40
2018-10-07T00:03:45.669Z,83.40
2018-10-07T00:04:45.670Z,85.10
2018-10-07T00:05:45.664Z,84.10
2018-10-07T00:06:45.664Z,89.60
2018-10-07T00:07:45.665Z,83.40
2018-10-07T00:08:45.666Z,83.20
2018-10-07T00:09:45.668Z,83.40
2018-10-07T00:10:45.667Z,90.40
2018-10-07T00:11:45.598Z,84.60
2018-10-07T00:12:45.673Z,86.00
2018-10-07T00:13:45.548Z,90.50
2018-10-07T00:14:45.551Z,89.30
2018-10-07T00:15:45.486Z,80.90
2018-10-07T00:16:45.552Z,77.70
2018-10-07T00:17:45.588Z,88.70
2018-10-07T00:18:45.483Z,86.90
2018-10-07T00:19:45.611Z,82.30
2018-10-07T00:20:45.556Z,81.60
2018-10-07T00:21:45.444Z,83.70
2018-10-07T00:22:45.555Z,77.30
2018-10-07T00:23:45.436Z,79.80
2018-10-07T00:24:45.436Z,89.00
2018-10-07T00:25:45.451Z,82.00
2018-10-07T00:26:45.373Z,85.50
2018-10-07T00:27:45.369Z,92.10
2018-10-07T00:28:45.375Z,90.60
2018-10-07T00:29:45.370Z,97.30
2018-10-07T00:30:45.378Z,92.00
2018-10-07T00:31:45.469Z,102.00
2018-10-07T00:32:45.442Z,101.20
2018-10-07T00:33:45.443Z,98.10
2018-10-07T00:34:45.326Z,99.20
2018-10-07T00:35:45.324Z,100.10
2018-10-07T00:36:45.445Z,105.50
2018-10-07T00:37:45.264Z,105.20
2018-10-07T00:38:45.326Z,98.50
2018-10-07T00:39:45.253Z,101.30
2018-10-07T00:40:45.377Z,95.50
2018-10-07T00:41:45.329Z,99.10
2018-10-07T00:42:45.258Z,98.90
2018-10-07T00:43:45.269Z,99.60
2018-10-07T00:48:55.832Z,91.90
2018-10-07T00:49:55.923Z,108.40
2018-10-07T00:50:55.776Z,113.80
2018-10-07T00:51:55.780Z,118.60
2018-10-07T00:52:55.657Z,116.20
2018-10-07T00:53:55.593Z,117.80
2018-10-07T00:54:55.558Z,113.30
2018-10-07T00:55:55.659Z,117.40
2018-10-07T00:56:55.660Z,117.90
2018-10-07T00:57:55.591Z,115.80
2018-10-07T00:58:55.543Z,123.30
2018-10-07T00:59:55.543Z,116.40
2018-10-07T01:00:55.543Z,115.30
2018-10-07T01:01:55.545Z,111.40
2018-10-07T01:02:55.574Z,113.30
2018-10-07T01:03:55.544Z,117.30
2018-10-07T01:04:55.547Z,117.80
2018-10-07T01:05:55.442Z,120.10
2018-10-07T01:06:55.547Z,110.10
2018-10-07T01:07:55.450Z,118.30
2018-10-07T01:08:55.456Z,116.30
2018-10-07T01:09:55.429Z,112.60
2018-10-07T01:10:55.429Z,116.10
2018-10-07T01:11:55.430Z,115.50
2018-10-07T01:12:55.430Z,121.00
2018-10-07T01:13:55.455Z,118.90
2018-10-07T01:14:55.313Z,119.50
2018-10-07T01:15:55.330Z,126.80
2018-10-07T01:16:55.359Z,130.00
2018-10-07T01:17:55.325Z,117.30
2018-10-07T01:18:55.314Z,121.30
2018-10-07T01:19:55.367Z,122.90
2018-10-07T01:20:55.345Z,124.50
2018-10-07T01:21:55.255Z,123.00
2018-10-07T01:22:55.317Z,129.60
2018-10-07T01:23:55.255Z,129.00
2018-10-07T01:24:55.209Z,133.50
2018-10-07T01:25:55.323Z,124.80
2018-10-07T01:26:55.211Z,127.50
2018-10-07T01:27:55.208Z,126.10
2018-10-07T01:28:55.201Z,121.50
2018-10-07T01:29:55.129Z,127.30
2018-10-07T01:30:55.203Z,122.10
2018-10-07T01:31:55.209Z,126.50
2018-10-07T01:32:55.203Z,124.20
2018-10-07T01:33:55.139Z,132.20
2018-10-07T01:34:55.135Z,127.70
2018-10-07T01:35:55.098Z,130.80
2018-10-07T01:36:55.094Z,129.40
2018-10-07T01:37:55.092Z,128.40
2018-10-07T01:38:55.125Z,132.30
2018-10-07T01:39:55.253Z,133.10
2018-10-07T01:40:55.089Z,131.40
2018-10-07T01:41:55.102Z,131.20
2018-10-07T01:42:55.014Z,133.70
2018-10-07T01:46:02.054Z,126.10
2018-10-07T01:47:01.844Z,133.60
2018-10-07T01:48:01.738Z,141.10
2018-10-07T01:49:01.731Z,141.70
2018-10-07T01:50:01.748Z,138.60
2018-10-07T01:51:01.633Z,139.80
2018-10-07T01:52:01.701Z,138.90
2018-10-07T01:53:01.579Z,136.60
2018-10-07T01:54:01.592Z,136.00
2018-10-07T01:55:02.658Z,140.70
2018-10-07T01:56:01.600Z,141.00
2018-10-07T01:57:01.512Z,137.70
2018-10-07T01:58:01.584Z,134.10
2018-10-07T01:59:01.581Z,137.20
2018-10-07T02:00:01.582Z,137.90
2018-10-07T02:01:01.514Z,132.50
2018-10-07T02:02:01.584Z,132.60
2018-10-07T02:03:01.520Z,140.60
2018-10-07T02:04:01.465Z,137.90
2018-10-07T02:05:01.502Z,135.90
2018-10-07T02:06:01.467Z,132.50
2018-10-07T02:07:01.468Z,131.30
2018-10-07T02:08:01.490Z,136.40
2018-10-07T02:09:01.468Z,142.60
2018-10-07T02:10:02.069Z,136.20
2018-10-07T02:11:01.399Z,135.90
2018-10-07T02:12:01.401Z,132.80
2018-10-07T02:13:01.352Z,133.70
2018-10-07T02:14:01.510Z,135.30
2018-10-07T02:15:01.377Z,135.90
2018-10-07T02:16:01.354Z,134.70
2018-10-07T02:17:01.356Z,131.10
2018-10-07T02:18:01.354Z,132.20
2018-10-07T02:19:01.358Z,137.40
2018-10-07T02:20:01.379Z,137.00
2018-10-07T02:21:01.285Z,133.70
2018-10-07T02:22:01.359Z,133.30
2018-10-07T02:23:01.291Z,131.40
2018-10-07T02:24:01.249Z,132.90
2018-10-07T02:25:01.375Z,136.60
2018-10-07T02:26:01.250Z,138.60
2018-10-07T02:27:01.258Z,133.40
2018-10-07T02:28:01.298Z,129.10
2018-10-07T02:29:01.262Z,139.30
2018-10-07T02:30:01.181Z,132.00
2018-10-07T02:31:01.284Z,131.40
2018-10-07T02:32:01.242Z,127.40
2018-10-07T02:33:01.173Z,128.10
2018-10-07T02:34:01.131Z,131.10
2018-10-07T02:35:01.146Z,133.30
2018-10-07T02:36:01.129Z,128.80
2018-10-07T02:37:01.182Z,133.50
2018-10-07T02:38:01.170Z,133.50
2018-10-07T02:39:01.062Z,128.00
2018-10-07T02:40:01.050Z,133.70
2018-10-07T02:41:01.142Z,128.20
2018-10-07T02:42:01.130Z,132.80
2018-10-07T02:43:01.059Z,130.50
2018-10-07T02:44:01.061Z,132.30
2018-10-07T02:45:01.013Z,131.90
2018-10-07T02:46:01.068Z,125.50
2018-10-07T02:47:01.015Z,126.50
2018-10-07T02:48:01.046Z,123.80
2018-10-07T02:49:00.940Z,126.20
2018-10-07T02:50:01.033Z,127.40
2018-10-07T02:51:01.015Z,129.00
2018-10-07T02:52:01.141Z,124.80
2018-10-07T02:53:01.035Z,128.10
2018-10-07T02:54:00.954Z,123.40
2018-10-07T02:55:00.908Z,124.90
2018-10-07T02:56:00.900Z,127.90
2018-10-07T02:57:00.901Z,122.00
2018-10-07T02:58:00.972Z,121.20
2018-10-07T02:59:00.829Z,117.10
2018-10-07T03:00:00.838Z,119.50
2018-10-07T03:01:00.824Z,119.50
2018-10-07T03:02:00.902Z,117.90
2018-10-07T03:03:00.903Z,117.50
2018-10-07T03:04:00.833Z,111.10
2018-10-07T03:05:00.787Z,111.00
2018-10-07T03:06:00.788Z,111.90
2018-10-07T03:07:00.801Z,110.40
2018-10-07T03:08:00.800Z,110.10
2018-10-07T03:09:00.794Z,113.60
2018-10-07T03:10:00.812Z,111.90
2018-10-07T03:11:00.790Z,106.80
2018-10-07T03:12:00.717Z,108.20
2018-10-07T03:13:00.728Z,106.40
2018-10-07T03:14:00.715Z,109.10
2018-10-07T03:15:00.673Z,107.70
2018-10-07T03:16:00.683Z,103.70
2018-10-07T03:17:00.692Z,99.00
2018-10-07T03:18:00.707Z,100.50
2018-10-07T03:19:00.794Z,101.20
2018-10-07T03:20:00.675Z,101.00
2018-10-07T03:21:00.677Z,97.50
2018-10-07T03:22:00.697Z,102.90
2018-10-07T03:23:01.520Z,98.70
2018-10-07T03:24:00.679Z,90.00
2018-10-07T03:25:00.692Z,93.10
2018-10-07T03:27:31.812Z,85.30
2018-10-07T03:28:31.907Z,89.00
2018-10-07T03:31:08.144Z,78.90
2018-10-07T03:32:07.612Z,80.40
2018-10-07T03:33:07.527Z,75.30
2018-10-07T03:34:07.525Z,69.70
2018-10-07T03:35:07.525Z,62.50
2018-10-07T03:36:09.097Z,59.90
2018-10-07T03:40:43.410Z,44.30
2018-10-07T03:48:14.854Z,33.40
2018-10-07T03:55:48.099Z,40.60
2018-10-07T04:06:57.955Z,33.20
2018-10-07T04:09:43.214Z,30.40
2018-10-07T04:10:41.030Z,39.10
2018-10-07T04:13:15.115Z,32.10
2018-10-07T04:14:09.406Z,39.80
2018-10-07T04:16:34.364Z,32.60
2018-10-07T04:17:34.314Z,39.80
2018-10-07T04:22:27.034Z,30.10
2018-10-07T04:26:48.879Z,31.20
2018-10-07T04:27:48.363Z,28.80
2018-10-07T04:29:01.459Z,29.30
2018-10-07T04:29:48.722Z,29.50
2018-10-07T04:30:48.484Z,32.70
2018-10-07T04:31:48.245Z,30.10
2018-10-07T04:32:48.247Z,29.00
2018-10-07T04:33:48.275Z,27.80
2018-10-07T04:34:48.248Z,27.50
2018-10-07T04:35:48.250Z,29.30
2018-10-07T04:36:48.380Z,26.60
2018-10-07T04:37:48.489Z,21.50
2018-10-07T04:38:48.129Z,28.50
2018-10-07T04:39:48.159Z,25.20
2018-10-07T04:40:48.254Z,24.10
2018-10-07T04:41:48.131Z,23.90
2018-10-07T04:42:48.370Z,28.00
2018-10-07T04:43:49.947Z,22.80
2018-10-07T04:44:51.039Z,24.80
2018-10-07T04:45:48.133Z,27.10
2018-10-07T04:46:48.619Z,23.60
2018-10-07T04:47:58.973Z,25.30
2018-10-07T04:48:48.253Z,23.10
2018-10-07T04:49:48.185Z,23.00
2018-10-07T04:50:48.162Z,24.20
2018-10-07T04:51:48.257Z,24.00
2018-10-07T04:52:48.050Z,22.80
2018-10-07T04:53:48.259Z,21.90
2018-10-07T04:54:48.282Z,23.80
2018-10-07T04:55:56.705Z,24.50
2018-10-07T04:56:48.379Z,26.50
2018-10-07T04:57:48.380Z,24.80
2018-10-07T05:00:09.429Z,16.40
2018-10-07T05:01:09.263Z,19.70
2018-10-07T05:02:09.025Z,22.50
2018-10-07T05:03:08.907Z,20.90
2018-10-07T05:04:08.911Z,22.90
2018-10-07T05:05:08.907Z,23.60
2018-10-07T05:06:08.908Z,22.30
2018-10-07T05:07:08.788Z,27.80
2018-10-07T05:08:08.787Z,25.00
2018-10-07T05:09:08.826Z,28.10
2018-10-07T05:16:31.387Z,22.20
2018-10-07T05:17:30.891Z,26.60
2018-10-07T05:18:31.115Z,21.90
2018-10-07T05:19:30.996Z,19.80
2018-10-07T05:20:30.875Z,23.50
2018-10-07T05:21:30.881Z,22.60
2018-10-07T05:22:30.761Z,26.20
2018-10-07T05:23:30.758Z,21.80
2018-10-07T05:24:30.892Z,22.60
2018-10-07T05:25:31.119Z,20.40
2018-10-07T05:29:19.001Z,16.50
2018-10-07T05:30:18.641Z,18.50
2018-10-07T05:31:18.551Z,17.90
2018-10-07T05:32:18.462Z,16.10
2018-10-07T05:33:18.531Z,14.30
2018-10-07T05:34:18.286Z,13.50
2018-10-07T05:37:16.029Z,15.90
2018-10-07T05:38:14.990Z,15.20
2018-10-07T05:45:34.397Z,12.90
2018-10-07T05:46:34.190Z,18.90
2018-10-07T05:52:56.219Z,19.40
2018-10-07T05:53:55.737Z,23.50
2018-10-07T05:54:55.648Z,24.90
2018-10-07T05:55:56.700Z,23.10
2018-10-07T05:58:44.476Z,24.80
2018-10-07T06:04:32.008Z,13.90
2018-10-07T06:05:31.508Z,18.00
2018-10-07T06:06:31.519Z,16.80
2018-10-07T06:07:31.628Z,18.90
2018-10-07T06:08:31.508Z,19.40
2018-10-07T06:09:31.508Z,20.20
2018-10-07T06:10:31.399Z,19.50
2018-10-07T06:11:31.390Z,18.80
2018-10-07T06:12:31.393Z,16.70
2018-10-07T06:13:31.799Z,17.60
2018-10-07T06:14:31.393Z,15.60
2018-10-07T06:17:45.581Z,17.40
2018-10-07T06:50:07.535Z,12.00
2018-10-07T06:51:07.057Z,9.20
2018-10-07T06:52:07.804Z,9.60
2018-10-07T07:01:46.088Z,6.60
2018-10-07T07:02:45.706Z,5.60
2018-10-07T07:11:24.971Z,3.40
2018-10-07T07:12:23.870Z,7.60
2018-10-07T07:13:23.870Z,6.70
2018-10-07T07:14:23.633Z,4.10
2018-10-07T07:15:23.635Z,5.70
2018-10-07T07:16:23.633Z,5.90
2018-10-07T07:17:23.634Z,5.20
2018-10-07T07:18:23.636Z,6.30
2018-10-07T07:19:23.755Z,7.00
2018-10-07T07:20:23.690Z,6.80
2018-10-07T07:21:23.638Z,5.00
2018-10-07T07:32:31.006Z,7.80
2018-10-07T07:33:30.492Z,4.60
2018-10-07T07:34:30.516Z,3.00
2018-10-07T07:35:30.489Z,4.80
2018-10-07T07:36:32.184Z,5.20
2018-10-07T07:37:30.489Z,3.00
2018-10-07T07:55:16.380Z,8.00
2018-10-07T08:04:00.508Z,3.50
2018-10-07T08:05:00.026Z,5.30
2018-10-07T08:06:00.060Z,5.30
2018-10-07T08:06:59.907Z,2.70
2018-10-07T08:07:59.909Z,3.40
2018-10-07T08:08:59.790Z,3.70
2018-10-07T08:09:59.790Z,3.40
2018-10-07T08:10:59.789Z,2.50
2018-10-07T08:11:59.792Z,3.80
2018-10-07T08:12:59.792Z,6.90
2018-10-07T08:14:02.671Z,2.50
2018-10-07T08:14:59.807Z,4.00
2018-10-07T08:15:59.794Z,3.70
2018-10-07T08:16:59.816Z,3.60
2018-10-07T08:17:59.798Z,2.20
2018-10-07T08:18:59.795Z,4.60
2018-10-07T08:19:59.677Z,3.90
2018-10-07T08:22:28.509Z,2.50
2018-10-07T08:23:28.163Z,3.30
2018-10-07T08:24:28.041Z,2.00
2018-10-07T08:25:28.368Z,3.00
2018-10-07T08:30:25.604Z,1.40
2018-10-07T08:31:24.884Z,5.80
2018-10-07T08:32:24.788Z,2.50
2018-10-07T08:33:24.819Z,4.10
2018-10-07T08:34:24.554Z,3.00
2018-10-07T08:35:24.576Z,3.30
2018-10-07T08:36:24.527Z,1.90
2018-10-07T08:37:24.528Z,3.10
2018-10-07T08:38:24.531Z,4.60
2018-10-07T08:39:24.530Z,4.10
2018-10-07T08:40:26.329Z,3.30
2018-10-07T08:41:24.530Z,3.40
2018-10-07T08:42:24.415Z,2.20
2018-10-07T08:43:24.413Z,2.60
2018-10-07T08:44:24.534Z,2.40
2018-10-07T08:45:24.538Z,4.80
2018-10-07T08:46:35.215Z,2.00
2018-10-07T08:50:14.576Z,0.90
2018-10-07T08:51:14.217Z,2.70
2018-10-07T08:52:14.221Z,3.40
2018-10-07T09:12:14.596Z,1.20
2018-10-07T09:14:51.193Z,1.20
2018-10-07T09:19:14.955Z,0.70
2018-10-07T09:20:13.276Z,1.40
2018-10-07T09:48:30.215Z,2.40
2018-10-07T09:49:31.178Z,2.10
2018-10-07T09:50:33.368Z,2.00
2018-10-07T09:55:04.781Z,1.40
2018-10-07T09:56:03.866Z,1.30
2018-10-07T09:57:03.879Z,1.70
2018-10-07T09:58:03.988Z,1.40
2018-10-07T09:59:03.707Z,0.80
2018-10-07T10:00:04.071Z,1.30
2018-10-07T10:01:03.717Z,2.10
2018-10-07T10:02:03.754Z,1.70
2018-10-07T10:03:03.705Z,1.60
2018-10-07T10:04:03.832Z,1.70
2018-10-07T10:05:03.636Z,2.30
2018-10-07T10:06:03.710Z,2.00
2018-10-07T10:07:03.955Z,1.20
2018-10-07T10:08:03.709Z,2.00
2018-10-07T10:09:03.591Z,1.70
2018-10-07T10:10:04.310Z,1.60
2018-10-07T10:11:03.681Z,1.80
2018-10-07T10:12:03.592Z,1.10
2018-10-07T10:13:03.594Z,1.90
2018-10-07T10:14:03.644Z,1.50
2018-10-07T10:15:03.528Z,1.00
2018-10-07T10:16:03.595Z,1.00
2018-10-07T10:17:03.595Z,1.90
2018-10-07T10:18:03.603Z,2.20
2018-10-07T10:19:03.477Z,1.50
2018-10-07T10:20:03.842Z,1.30
2018-10-07T10:21:03.477Z,2.20
2018-10-07T10:22:03.485Z,1.70
2018-10-07T10:23:03.407Z,1.60
2018-10-07T10:24:08.160Z,1.70
2018-10-07T10:25:03.417Z,0.80
2018-10-07T10:26:03.415Z,1.80
2018-10-07T10:27:03.421Z,1.80
2018-10-07T10:28:03.485Z,1.10
2018-10-07T10:29:03.363Z,1.30
2018-10-07T10:30:03.642Z,1.50
2018-10-07T10:31:03.362Z,2.20
2018-10-07T10:33:37.805Z,1.00
2018-10-07T10:34:36.605Z,1.60
2018-10-07T10:35:36.365Z,1.10
2018-10-07T10:36:36.410Z,2.10
2018-10-07T10:37:36.249Z,1.30
2018-10-07T10:38:36.250Z,1.30
2018-10-07T10:43:11.172Z,0.70
2018-10-07T10:44:10.691Z,1.50
2018-10-07T10:45:19.130Z,2.10
2018-10-07T11:04:49.947Z,0.70
2018-10-07T11:05:49.592Z,1.60
2018-10-07T11:06:49.503Z,0.90
2018-10-07T11:07:49.468Z,1.20
2018-10-07T11:08:49.350Z,1.20
2018-10-07T11:15:01.714Z,1.20
2018-10-07T11:16:01.113Z,1.40
2018-10-07T11:20:58.373Z,1.30
2018-10-07T11:21:57.998Z,2.60
2018-10-07T11:22:57.920Z,1.20
2018-10-07T11:23:57.882Z,1.50
2018-10-07T11:24:57.759Z,1.20
2018-10-07T11:25:57.880Z,0.70
2018-10-07T11:27:07.481Z,1.20
2018-10-07T11:27:57.880Z,1.20
2018-10-07T11:29:18.762Z,1.60
2018-10-07T11:31:19.482Z,0.60
2018-10-07T11:32:18.284Z,1.80
2018-10-07T11:33:17.938Z,1.90
2018-10-07T11:34:17.981Z,1.00
2018-10-07T11:35:22.848Z,1.80
2018-10-07T11:36:17.847Z,1.00
2018-10-07T11:37:18.175Z,2.50
2018-10-07T11:38:17.928Z,1.70
2018-10-07T11:39:17.981Z,1.90
2018-10-07T11:40:17.943Z,2.00
2018-10-07T11:41:17.867Z,1.90
2018-10-07T11:42:18.172Z,2.00
2018-10-07T11:43:18.050Z,1.10
2018-10-07T11:44:17.811Z,1.00
2018-10-07T11:45:17.814Z,1.30
2018-10-07T11:47:35.129Z,4.20
2018-10-07T11:48:34.759Z,1.60
2018-10-07T11:49:34.735Z,2.00
2018-10-07T11:50:34.737Z,2.10
2018-10-07T11:51:34.618Z,1.00
2018-10-07T11:52:34.616Z,3.10
2018-10-07T11:53:34.617Z,1.70
2018-10-07T11:54:34.618Z,2.30
2018-10-07T11:55:34.536Z,1.50
2018-10-07T11:56:34.539Z,1.40
2018-10-07T11:57:34.556Z,1.80
2018-10-07T11:58:34.546Z,1.40
2018-10-07T11:59:34.503Z,1.80
2018-10-07T12:00:34.502Z,2.00
2018-10-07T12:01:34.507Z,1.90
2018-10-07T12:02:34.539Z,1.80
2018-10-07T12:03:34.629Z,1.40
2018-10-07T12:04:34.505Z,2.50
2018-10-07T12:05:34.506Z,2.30
2018-10-07T12:06:34.868Z,1.30
2018-10-07T12:07:34.441Z,1.70
2018-10-07T12:08:34.414Z,1.80
2018-10-07T12:09:34.389Z,2.30
2018-10-07T12:10:34.390Z,1.90
2018-10-07T12:11:34.389Z,1.10
2018-10-07T12:12:34.391Z,2.50
2018-10-07T12:13:34.329Z,1.80
2018-10-07T12:14:34.308Z,2.10
2018-10-07T12:15:34.395Z,2.80
2018-10-07T12:16:34.488Z,2.80
2018-10-07T12:17:34.394Z,1.80
2018-10-07T12:18:34.309Z,1.70
2018-10-07T12:19:34.394Z,1.00
2018-10-07T12:20:34.276Z,2.60
2018-10-07T12:21:34.277Z,1.40
2018-10-07T12:22:34.275Z,2.40
2018-10-07T12:23:34.213Z,1.80
2018-10-07T12:24:34.277Z,0.90
2018-10-07T12:25:34.279Z,1.50
2018-10-07T12:26:34.279Z,3.30
2018-10-07T12:27:34.279Z,1.70
2018-10-07T12:28:34.279Z,1.40
2018-10-07T12:32:50.843Z,1.60
2018-10-07T12:33:49.651Z,2.80
2018-10-07T12:34:49.651Z,1.90
2018-10-07T12:39:19.887Z,1.20
2018-10-07T12:40:19.453Z,1.90
2018-10-07T12:41:19.650Z,1.60
2018-10-07T12:42:20.129Z,3.80
2018-10-07T12:43:23.610Z,2.50
2018-10-07T12:44:18.932Z,2.20
2018-10-07T12:45:19.205Z,1.90
2018-10-07T12:46:18.933Z,1.80
2018-10-07T12:47:19.793Z,1.20
2018-10-07T12:48:20.974Z,2.00
2018-10-07T12:49:19.054Z,2.00
2018-10-07T12:50:21.695Z,2.20
2018-10-07T12:51:19.656Z,2.20
2018-10-07T12:52:18.844Z,2.10
2018-10-07T12:53:18.816Z,2.10
2018-10-07T12:54:18.988Z,3.00
2018-10-07T12:55:18.818Z,1.50
2018-10-07T12:56:18.738Z,2.40
2018-10-07T12:57:18.750Z,2.60
2018-10-07T12:58:18.819Z,1.30
2018-10-07T12:59:20.499Z,2.30
2018-10-07T13:00:19.108Z,4.00
2018-10-07T13:01:18.822Z,3.60
2018-10-07T13:02:19.062Z,1.60
2018-10-07T13:03:18.702Z,2.60
2018-10-07T13:04:19.186Z,3.30
2018-10-07T13:05:18.704Z,1.50
2018-10-07T13:06:18.626Z,1.70
2018-10-07T13:07:18.637Z,2.00
2018-10-07T13:08:18.630Z,1.90
2018-10-07T13:09:18.706Z,1.40
2018-10-07T13:14:17.390Z,0.60
2018-10-07T13:16:39.951Z,1.00
2018-10-07T13:17:39.592Z,1.90
2018-10-07T13:18:39.603Z,3.30
2018-10-07T13:19:55.490Z,1.80
2018-10-07T13:20:39.593Z,2.80
2018-10-07T13:21:39.482Z,1.80
2018-10-07T13:28:38.218Z,1.60
2018-10-07T13:29:36.959Z,1.60
2018-10-07T13:30:37.325Z,1.50
2018-10-07T13:31:36.844Z,1.90
2018-10-07T13:32:37.202Z,1.90
2018-10-07T13:33:36.867Z,2.80
2018-10-07T13:34:36.770Z,2.00
2018-10-07T13:35:36.761Z,1.40
2018-10-07T13:36:36.847Z,2.40
2018-10-07T13:37:36.964Z,3.20
2018-10-07T13:38:36.846Z,1.60
2018-10-07T13:39:36.763Z,2.40
2018-10-07T13:40:36.741Z,2.30
2018-10-07T13:41:36.756Z,1.50
2018-10-07T13:42:36.729Z,2.40
2018-10-07T13:43:36.729Z,1.70
2018-10-07T13:44:36.754Z,2.00
2018-10-07T13:45:36.646Z,1.70
2018-10-07T13:46:36.649Z,2.20
2018-10-07T13:47:36.731Z,2.00
2018-10-07T13:48:36.852Z,1.40
2018-10-07T13:49:36.732Z,2.20
2018-10-07T13:50:36.734Z,2.90
2018-10-07T13:51:36.741Z,2.40
2018-10-07T13:52:36.614Z,2.20
2018-10-07T13:53:36.624Z,2.30
2018-10-07T13:54:36.616Z,2.30
2018-10-07T13:55:36.629Z,3.10
2018-10-07T13:56:36.533Z,2.30
2018-10-07T13:57:36.617Z,2.00
2018-10-07T13:58:36.539Z,2.10
2018-10-07T13:59:36.624Z,3.00
2018-10-07T14:00:36.553Z,1.60
2018-10-07T14:01:36.541Z,1.90
2018-10-07T14:02:36.502Z,1.80
2018-10-07T14:03:36.588Z,1.70
2018-10-07T14:04:36.555Z,3.00
2018-10-07T14:05:36.505Z,2.50
2018-10-07T14:06:36.430Z,1.70
2018-10-07T14:07:36.504Z,1.40
2018-10-07T14:08:36.504Z,4.10
2018-10-07T14:09:36.504Z,2.90
2018-10-07T14:10:36.443Z,2.10
2018-10-07T14:11:36.509Z,4.40
2018-10-07T14:12:36.507Z,4.40
2018-10-07T14:13:36.508Z,1.80
2018-10-07T14:14:36.323Z,2.00
2018-10-07T14:15:36.322Z,2.50
2018-10-07T14:16:36.512Z,2.70
2018-10-07T14:17:36.389Z,2.40
2018-10-07T14:18:36.393Z,2.40
2018-10-07T14:19:36.393Z,2.80
2018-10-07T14:20:36.316Z,2.30
2018-10-07T14:21:36.288Z,2.00
2018-10-07T14:22:36.289Z,1.90
2018-10-07T14:23:36.277Z,1.30
2018-10-07T14:24:36.281Z,2.90
2018-10-07T14:25:36.275Z,2.40
2018-10-07T14:26:36.193Z,2.60
2018-10-07T14:27:36.293Z,1.80
2018-10-07T14:28:36.201Z,1.60
2018-10-07T14:29:36.201Z,1.40
2018-10-07T14:30:36.203Z,2.10
2018-10-07T14:31:36.281Z,2.80
2018-10-07T14:32:36.170Z,1.70
2018-10-07T14:33:36.174Z,2.00
2018-10-07T14:34:36.161Z,2.80
2018-10-07T14:35:36.095Z,3.10
2018-10-07T14:36:36.162Z,2.10
2018-10-07T14:37:36.162Z,2.00
2018-10-07T14:38:36.166Z,2.80
2018-10-07T14:39:36.085Z,2.10
2018-10-07T14:40:36.088Z,2.70
2018-10-07T14:41:36.090Z,1.80
2018-10-07T14:42:36.061Z,1.90
2018-10-07T14:43:37.127Z,2.20
2018-10-07T14:44:36.050Z,1.30
2018-10-07T14:45:36.048Z,1.70
2018-10-07T14:46:35.963Z,1.90
2018-10-07T14:47:35.970Z,2.40
2018-10-07T14:48:36.051Z,1.40
2018-10-07T14:49:35.974Z,5.40
2018-10-07T14:50:36.052Z,2.30
2018-10-07T14:51:35.989Z,2.40
2018-10-07T14:52:36.098Z,2.10
2018-10-07T14:53:35.967Z,3.20
2018-10-07T14:54:35.969Z,3.10
2018-10-07T14:55:35.935Z,1.90
2018-10-07T14:56:35.936Z,1.90
2018-10-07T14:57:35.939Z,3.90
2018-10-07T14:58:35.939Z,2.90
2018-10-07T14:59:35.962Z,3.80
2018-10-07T15:00:36.069Z,3.40
2018-10-07T15:01:35.860Z,2.40
2018-10-07T15:02:35.865Z,4.10
2018-10-07T15:03:35.873Z,1.70
2018-10-07T15:04:36.305Z,3.00
2018-10-07T15:05:35.820Z,3.10
2018-10-07T15:06:35.832Z,4.40
2018-10-07T15:07:35.744Z,2.10
2018-10-07T15:08:35.744Z,3.00
2018-10-07T15:09:35.774Z,6.90
2018-10-07T15:10:35.865Z,2.90
2018-10-07T15:11:35.824Z,3.90
2018-10-07T15:12:35.710Z,6.20
2018-10-07T15:13:35.710Z,3.00
2018-10-07T15:14:35.778Z,4.50
2018-10-07T15:15:35.768Z,4.80
2018-10-07T15:16:35.829Z,1.90
2018-10-07T15:17:35.633Z,3.10
2018-10-07T15:18:35.644Z,3.00
2018-10-07T15:19:35.633Z,4.80
2018-10-07T15:20:36.910Z,2.60
2018-10-07T15:26:00.926Z,1.80
2018-10-07T15:27:03.075Z,4.20
2018-10-07T15:28:00.438Z,2.30
2018-10-07T15:29:00.438Z,3.30
2018-10-07T15:30:00.354Z,2.60
2018-10-07T15:31:00.374Z,4.00
2018-10-07T15:32:00.445Z,2.80
2018-10-07T15:33:00.320Z,4.60
2018-10-07T15:34:00.330Z,4.00
2018-10-07T15:35:00.322Z,2.40
2018-10-07T15:36:00.259Z,2.60
2018-10-07T15:37:00.261Z,2.40
2018-10-07T15:38:00.379Z,5.80
2018-10-07T15:39:00.251Z,2.80
2018-10-07T15:40:00.242Z,2.70
2018-10-07T15:41:00.262Z,3.20
2018-10-07T15:42:00.239Z,3.00
2018-10-07T15:43:00.241Z,2.40
2018-10-07T15:44:00.239Z,4.10
2018-10-07T15:45:00.209Z,1.90
2018-10-07T15:46:00.211Z,3.30
2018-10-07T15:47:00.145Z,4.10
2018-10-07T15:48:00.134Z,5.00
2018-10-07T15:49:00.134Z,4.20
2018-10-07T15:50:00.215Z,3.00
2018-10-07T15:51:00.132Z,3.90
2018-10-07T15:52:00.132Z,3.40
2018-10-07T15:53:00.148Z,3.60
2018-10-07T15:54:00.095Z,4.20
2018-10-07T15:55:00.128Z,3.20
2018-10-07T15:56:00.123Z,3.70
2018-10-07T15:57:00.096Z,3.30
2018-10-07T15:58:00.029Z,2.20
2018-10-07T15:59:00.031Z,2.20
2018-10-07T16:00:00.100Z,3.30
2018-10-07T16:01:00.023Z,4.70
2018-10-07T16:02:00.044Z,2.40
2018-10-07T16:03:00.029Z,6.60
2018-10-07T16:04:00.018Z,3.90
2018-10-07T16:04:59.982Z,4.30
2018-10-07T16:05:59.987Z,2.80
2018-10-07T16:07:00.031Z,2.20
2018-10-07T16:07:59.983Z,4.40
2018-10-07T16:08:59.989Z,2.80
2018-10-07T16:10:00.005Z,4.10
2018-10-07T16:10:59.986Z,3.00
2018-10-07T16:11:59.908Z,2.60
2018-10-07T16:12:59.923Z,3.40
2018-10-07T16:13:59.920Z,4.30
2018-10-07T16:14:59.989Z,5.20
2018-10-07T16:16:00.165Z,3.20
2018-10-07T16:17:00.015Z,3.40
2018-10-07T16:17:59.870Z,2.50
2018-10-07T16:18:59.796Z,3.20
2018-10-07T16:19:59.873Z,2.20
2018-10-07T16:20:59.801Z,4.10
2018-10-07T16:21:59.792Z,3.90
2018-10-07T16:22:59.873Z,4.60
2018-10-07T16:23:59.800Z,2.90
2018-10-07T16:24:59.754Z,6.30
2018-10-07T16:25:59.822Z,2.80
2018-10-07T16:26:59.788Z,4.00
2018-10-07T16:27:59.760Z,4.00
2018-10-07T16:28:59.758Z,4.40
2018-10-07T16:29:59.690Z,4.60
2018-10-07T16:30:59.774Z,2.50
2018-10-07T16:31:59.735Z,3.10
2018-10-07T16:32:59.814Z,3.60
2018-10-07T16:33:59.698Z,3.10
2018-10-07T16:34:59.691Z,2.70
2018-10-07T16:35:59.655Z,2.10
2018-10-07T16:36:59.653Z,2.50
2018-10-07T16:37:59.644Z,3.20
2018-10-07T16:38:59.740Z,3.90
2018-10-07T16:39:59.564Z,4.50
2018-10-07T16:40:59.565Z,1.30
2018-10-07T16:41:59.573Z,4.80
2018-10-07T16:42:59.647Z,3.60
2018-10-07T16:43:59.562Z,3.90
2018-10-07T16:44:59.651Z,3.50
2018-10-07T16:45:59.530Z,4.30
2018-10-07T16:46:59.530Z,3.30
2018-10-07T16:47:59.775Z,4.90
2018-10-07T16:48:59.531Z,4.90
2018-10-07T16:49:59.530Z,4.80
2018-10-07T16:50:59.453Z,4.60
2018-10-07T16:51:59.452Z,5.30
2018-10-07T16:52:59.457Z,3.80
2018-10-07T16:53:59.538Z,3.50
2018-10-07T16:54:59.453Z,4.60
2018-10-07T16:55:59.416Z,2.80
2018-10-07T16:56:59.541Z,3.40
2018-10-07T16:57:59.472Z,4.00
2018-10-07T16:58:59.417Z,3.70
2018-10-07T16:59:59.345Z,1.70
2018-10-07T17:00:59.418Z,3.50
2018-10-07T17:01:59.344Z,4.10
2018-10-07T17:02:59.340Z,3.70
2018-10-07T17:03:59.470Z,3.30
2018-10-07T17:04:59.421Z,3.50
2018-10-07T17:05:59.341Z,4.00
2018-10-07T17:06:59.308Z,3.70
2018-10-07T17:07:59.305Z,4.10
2018-10-07T17:08:59.305Z,2.80
2018-10-07T17:09:59.305Z,2.90
2018-10-07T17:10:59.237Z,3.90
2018-10-07T17:11:59.223Z,3.50
2018-10-07T17:12:59.347Z,4.70
2018-10-07T17:13:59.229Z,4.50
2018-10-07T17:14:59.308Z,6.00
2018-10-07T17:15:59.237Z,6.70
2018-10-07T17:16:59.191Z,4.70
2018-10-07T17:17:59.192Z,3.80
2018-10-07T17:18:59.204Z,3.70
2018-10-07T17:19:59.191Z,4.20
2018-10-07T17:20:59.239Z,3.00
2018-10-07T17:21:59.107Z,2.40
2018-10-07T17:22:59.109Z,4.30
2018-10-07T17:23:59.197Z,4.30
2018-10-07T17:24:59.195Z,4.20
2018-10-07T17:25:59.111Z,4.30
2018-10-07T17:26:59.126Z,5.00
2018-10-07T17:27:59.078Z,5.50
2018-10-07T17:28:59.077Z,3.50
2018-10-07T17:29:59.077Z,2.70
2018-10-07T17:30:59.091Z,3.70
2018-10-07T17:31:59.085Z,5.00
2018-10-07T17:32:59.080Z,5.40
2018-10-07T17:33:59.002Z,2.60
2018-10-07T17:34:58.995Z,2.80
2018-10-07T17:35:59.134Z,4.50
2018-10-07T17:36:59.964Z,5.10
2018-10-07T17:37:58.970Z,3.50
2018-10-07T17:38:58.972Z,5.10
2018-10-07T17:39:58.965Z,5.40
2018-10-07T17:40:58.964Z,4.40
2018-10-07T17:41:59.017Z,3.60
2018-10-07T17:42:58.965Z,7.10
2018-10-07T17:43:58.882Z,5.90
2018-10-07T17:44:58.967Z,5.10
2018-10-07T17:45:59.088Z,2.90
2018-10-07T17:46:58.888Z,4.20
2018-10-07T17:47:58.915Z,5.60